createdAt,value
2018-09-06T00:01:00.223Z,14.10
2018-09-06T00:03:27.824Z,12.83
2018-09-06T00:05:55.517Z,14.27
2018-09-06T00:08:23.495Z,14.93
2018-09-06T00:10:51.446Z,14.07
2018-09-06T00:13:19.023Z,13.60
2018-09-06T00:15:46.887Z,14.10
2018-09-06T00:18:14.499Z,12.30
2018-09-06T00:20:42.114Z,13.10
2018-09-06T00:23:09.815Z,14.40
2018-09-06T00:25:37.651Z,15.70
2018-09-06T00:28:05.516Z,16.10
2018-09-06T00:30:33.122Z,13.63
2018-09-06T00:33:00.667Z,14.70
2018-09-06T00:35:28.286Z,13.73
2018-09-06T00:37:55.927Z,13.83
2018-09-06T00:40:23.623Z,14.20
2018-09-06T00:42:51.258Z,15.27
2018-09-06T00:45:19.088Z,14.03
2018-09-06T00:47:46.816Z,15.23
2018-09-06T00:50:15.521Z,13.63
2018-09-06T00:52:43.599Z,15.10
2018-09-06T00:55:11.456Z,14.53
2018-09-06T00:57:39.127Z,12.40
2018-09-06T01:00:06.800Z,16.13
2018-09-06T01:02:34.458Z,14.17
2018-09-06T01:05:02.082Z,15.20
2018-09-06T01:07:29.734Z,14.07
2018-09-06T01:09:57.410Z,14.30
2018-09-06T01:12:26.031Z,14.03
2018-09-06T01:14:53.884Z,15.07
2018-09-06T01:17:21.462Z,14.30
2018-09-06T01:19:49.109Z,15.30
2018-09-06T01:22:16.787Z,13.73
2018-09-06T01:24:44.447Z,13.73
2018-09-06T01:27:12.091Z,15.17
2018-09-06T01:29:39.805Z,15.20
2018-09-06T01:32:07.499Z,14.70
2018-09-06T01:34:35.181Z,15.60
2018-09-06T01:37:06.615Z,14.77
2018-09-06T01:39:34.799Z,14.50
2018-09-06T01:42:02.789Z,15.03
2018-09-06T01:44:30.420Z,15.23
2018-09-06T01:46:58.110Z,15.30
2018-09-06T01:49:25.730Z,13.77
2018-09-06T01:51:53.364Z,14.30
2018-09-06T01:54:20.983Z,14.53
2018-09-06T01:56:48.670Z,14.70
2018-09-06T01:59:16.242Z,15.20
2018-09-06T02:01:43.867Z,14.50
2018-09-06T02:04:11.494Z,16.30
2018-09-06T02:06:39.233Z,17.93
2018-09-06T02:09:07.690Z,16.93
2018-09-06T02:11:35.687Z,17.47
2018-09-06T02:14:03.379Z,16.63
2018-09-06T02:16:31.221Z,14.53
2018-09-06T02:18:58.863Z,14.83
2018-09-06T02:21:26.547Z,15.57
2018-09-06T02:23:54.153Z,15.47
2018-09-06T02:26:21.791Z,13.97
2018-09-06T02:28:49.442Z,15.40
2018-09-06T02:31:17.135Z,14.33
2018-09-06T02:33:44.749Z,14.13
2018-09-06T02:36:12.374Z,14.80
2018-09-06T02:38:39.945Z,14.87
2018-09-06T02:41:07.579Z,16.17
2018-09-06T02:43:35.159Z,14.70
2018-09-06T02:46:02.838Z,14.27
2018-09-06T02:48:38.946Z,15.13
2018-09-06T02:51:12.239Z,15.57
2018-09-06T02:53:40.545Z,15.60
2018-09-06T02:56:08.454Z,14.50
2018-09-06T02:58:36.190Z,15.13
2018-09-06T03:01:03.859Z,14.33
2018-09-06T03:03:31.492Z,14.87
2018-09-06T03:05:59.150Z,15.73
2018-09-06T03:08:26.858Z,16.27
2018-09-06T03:11:01.791Z,15.10
2018-09-06T03:13:29.344Z,14.90
2018-09-06T03:15:57.032Z,15.57
2018-09-06T03:18:24.639Z,16.30
2018-09-06T03:20:52.251Z,16.60
2018-09-06T03:23:19.969Z,15.80
2018-09-06T03:25:47.623Z,17.00
2018-09-06T03:28:15.310Z,16.03
2018-09-06T03:30:42.924Z,17.40
2018-09-06T03:33:10.582Z,16.40
2018-09-06T03:35:38.163Z,15.03
2018-09-06T03:38:05.819Z,17.00
2018-09-06T03:40:33.480Z,16.97
2018-09-06T03:43:01.114Z,17.03
2018-09-06T03:45:28.779Z,15.80
2018-09-06T03:47:56.515Z,16.03
2018-09-06T03:50:24.200Z,16.40
2018-09-06T03:52:51.862Z,15.90
2018-09-06T03:55:19.486Z,16.70
2018-09-06T03:57:47.211Z,17.43
2018-09-06T04:00:14.823Z,17.73
2018-09-06T04:02:42.471Z,17.00
2018-09-06T04:05:10.051Z,18.73
2018-09-06T04:07:37.774Z,17.47
2018-09-06T04:10:05.499Z,19.87
2018-09-06T04:12:33.170Z,18.27
2018-09-06T04:15:00.800Z,18.90
2018-09-06T04:17:28.437Z,20.30
2018-09-06T04:19:56.142Z,19.77
2018-09-06T04:22:23.747Z,18.07
2018-09-06T04:24:51.319Z,17.80
2018-09-06T04:27:18.958Z,18.10
2018-09-06T04:29:46.574Z,18.30
2018-09-06T04:32:14.211Z,18.23
2018-09-06T04:34:41.821Z,17.40
2018-09-06T04:37:09.487Z,17.70
2018-09-06T04:39:37.178Z,17.97
2018-09-06T04:42:04.758Z,20.90
2018-09-06T04:44:32.463Z,20.37
2018-09-06T04:47:00.011Z,18.90
2018-09-06T04:49:27.695Z,19.87
2018-09-06T04:51:55.343Z,18.00
2018-09-06T04:54:22.977Z,20.60
2018-09-06T04:56:50.807Z,19.90
2018-09-06T04:59:18.474Z,20.53
2018-09-06T05:01:46.157Z,23.67
2018-09-06T05:04:13.813Z,20.60
2018-09-06T05:06:41.422Z,21.23
2018-09-06T05:09:09.914Z,19.87
2018-09-06T05:11:38.286Z,26.17
2018-09-06T05:14:05.994Z,23.23
2018-09-06T05:16:33.684Z,21.73
2018-09-06T05:19:01.327Z,21.17
2018-09-06T05:21:28.899Z,20.47
2018-09-06T05:23:56.555Z,19.67
2018-09-06T05:26:24.151Z,21.70
2018-09-06T05:28:51.897Z,17.53
2018-09-06T05:31:19.508Z,17.87
2018-09-06T05:33:47.243Z,20.17
2018-09-06T05:36:14.903Z,20.93
2018-09-06T05:38:42.505Z,19.50
2018-09-06T05:41:10.195Z,19.00
2018-09-06T05:43:37.897Z,18.37
2018-09-06T05:46:05.789Z,17.87
2018-09-06T05:48:33.398Z,18.33
2018-09-06T05:51:01.052Z,18.37
2018-09-06T05:53:28.863Z,18.03
2018-09-06T05:55:56.438Z,17.70
2018-09-06T05:58:24.194Z,19.77
2018-09-06T06:00:51.910Z,20.33
2018-09-06T06:03:19.551Z,19.13
2018-09-06T06:05:47.179Z,17.83
2018-09-06T06:08:26.110Z,19.83
2018-09-06T06:10:53.694Z,18.57
2018-09-06T06:13:21.424Z,21.33
2018-09-06T06:15:49.106Z,18.27
2018-09-06T06:18:16.694Z,20.80
2018-09-06T06:20:44.357Z,19.33
2018-09-06T06:23:12.015Z,20.40
2018-09-06T06:25:39.691Z,17.60
2018-09-06T06:28:07.337Z,18.20
2018-09-06T06:30:35.031Z,19.20
2018-09-06T06:33:02.735Z,22.00
2018-09-06T06:35:30.366Z,19.90
2018-09-06T06:37:58.077Z,20.13
2018-09-06T06:40:29.695Z,19.13
2018-09-06T06:42:57.338Z,20.23
2018-09-06T06:45:24.961Z,18.67
2018-09-06T06:47:52.543Z,22.43
2018-09-06T06:50:21.036Z,18.33
2018-09-06T06:52:48.615Z,20.17
2018-09-06T06:55:17.404Z,22.67
2018-09-06T06:57:45.125Z,20.53
2018-09-06T07:00:12.875Z,20.83
2018-09-06T07:02:40.475Z,20.10
2018-09-06T07:05:08.099Z,22.57
2018-09-06T07:07:35.743Z,22.20
2018-09-06T07:10:03.778Z,19.73
2018-09-06T07:12:31.627Z,23.73
2018-09-06T07:14:59.330Z,20.80
2018-09-06T07:17:26.930Z,22.27
2018-09-06T07:19:54.579Z,25.20
2018-09-06T07:22:22.201Z,21.83
2018-09-06T07:24:49.850Z,24.30
2018-09-06T07:27:17.616Z,22.23
2018-09-06T07:29:45.306Z,26.03
2018-09-06T07:32:12.936Z,26.63
2018-09-06T07:34:41.458Z,25.57
2018-09-06T07:37:09.039Z,25.20
2018-09-06T07:39:37.149Z,22.53
2018-09-06T07:42:04.854Z,20.40
2018-09-06T07:44:32.513Z,20.77
2018-09-06T07:47:00.083Z,20.60
2018-09-06T07:49:27.723Z,19.50
2018-09-06T07:51:55.312Z,20.50
2018-09-06T07:54:23.386Z,19.13
2018-09-06T07:56:51.053Z,20.37
2018-09-06T07:59:18.682Z,19.77
2018-09-06T08:01:46.291Z,21.33
2018-09-06T08:04:13.978Z,21.47
2018-09-06T08:06:42.035Z,20.40
2018-09-06T08:09:10.670Z,21.80
2018-09-06T08:11:38.839Z,22.37
2018-09-06T08:14:06.517Z,20.57
2018-09-06T08:16:34.594Z,19.93
2018-09-06T08:19:02.271Z,21.87
2018-09-06T08:21:29.996Z,51.20
2018-09-06T08:23:57.681Z,31.83
2018-09-06T08:26:25.683Z,24.33
2018-09-06T08:28:53.318Z,21.50
2018-09-06T08:31:21.048Z,27.73
2018-09-06T08:33:49.558Z,24.43
2018-09-06T08:36:17.430Z,22.40
2018-09-06T08:38:45.002Z,22.93
2018-09-06T08:41:13.078Z,23.00
2018-09-06T08:43:40.942Z,21.37
2018-09-06T08:46:08.854Z,23.37
2018-09-06T08:48:36.531Z,24.87
2018-09-06T08:51:04.395Z,25.07
2018-09-06T08:53:32.014Z,26.13
2018-09-06T08:55:59.660Z,24.20
2018-09-06T08:58:27.409Z,24.47
2018-09-06T09:01:00.766Z,25.80
2018-09-06T09:03:28.596Z,25.67
2018-09-06T09:05:56.491Z,24.50
2018-09-06T09:08:24.236Z,24.50
2018-09-06T09:10:52.002Z,26.90
2018-09-06T09:13:19.667Z,22.10
2018-09-06T09:15:47.470Z,25.03
2018-09-06T09:18:15.140Z,25.63
2018-09-06T09:20:42.838Z,24.40
2018-09-06T09:23:10.491Z,24.27
2018-09-06T09:28:12.060Z,24.80
2018-09-06T09:30:39.831Z,24.43
2018-09-06T09:33:07.431Z,23.80
2018-09-06T09:35:35.095Z,21.13
2018-09-06T09:38:02.811Z,21.03
2018-09-06T09:40:30.488Z,18.27
2018-09-06T09:42:58.166Z,18.43
2018-09-06T09:45:25.947Z,19.80
2018-09-06T09:47:53.697Z,18.37
2018-09-06T09:52:48.683Z,17.90
2018-09-06T09:55:16.362Z,17.03
2018-09-06T09:57:43.974Z,21.10
2018-09-06T10:00:11.594Z,17.73
2018-09-06T10:02:44.870Z,16.07
2018-09-06T10:05:17.965Z,14.90
2018-09-06T10:07:51.182Z,16.60
2018-09-06T10:10:18.761Z,17.03
2018-09-06T10:12:46.427Z,17.87
2018-09-06T10:15:13.998Z,18.27
2018-09-06T10:17:41.694Z,18.53
2018-09-06T10:20:09.341Z,18.27
2018-09-06T10:22:37.046Z,16.87
2018-09-06T10:25:04.822Z,17.30
2018-09-06T10:27:32.582Z,17.50
2018-09-06T10:30:00.370Z,18.97
2018-09-06T10:32:28.046Z,16.10
2018-09-06T10:34:55.930Z,17.60
2018-09-06T10:37:23.722Z,15.83
2018-09-06T10:39:51.412Z,16.90
2018-09-06T10:42:19.095Z,17.03
2018-09-06T10:44:46.763Z,17.20
2018-09-06T10:47:14.422Z,17.20
2018-09-06T10:49:42.048Z,18.33
2018-09-06T10:52:09.647Z,17.00
2018-09-06T10:54:37.272Z,17.80
2018-09-06T10:57:05.248Z,17.00
2018-09-06T10:59:33.008Z,17.57
2018-09-06T11:02:00.727Z,16.27
2018-09-06T11:04:28.411Z,18.17
2018-09-06T11:06:56.223Z,16.77
2018-09-06T11:09:23.931Z,15.77
2018-09-06T11:11:51.579Z,16.17
2018-09-06T11:14:19.256Z,14.53
2018-09-06T11:16:46.995Z,16.77
2018-09-06T11:19:14.662Z,16.37
2018-09-06T11:21:42.405Z,15.60
2018-09-06T11:24:09.939Z,13.20
2018-09-06T11:26:37.530Z,13.43
2018-09-06T11:29:05.214Z,13.90
2018-09-06T11:31:33.041Z,14.90
2018-09-06T11:34:00.680Z,15.97
2018-09-06T11:36:28.325Z,14.23
2018-09-06T11:38:56.037Z,13.23
2018-09-06T11:41:23.743Z,15.97
2018-09-06T11:43:51.466Z,16.67
2018-09-06T11:46:19.147Z,14.93
2018-09-06T11:48:46.958Z,15.50
2018-09-06T11:51:14.681Z,14.30
2018-09-06T11:53:42.330Z,14.50
2018-09-06T11:56:10.113Z,14.77
2018-09-06T11:58:38.012Z,15.57
2018-09-06T12:01:05.996Z,16.90
2018-09-06T12:03:33.821Z,14.43
2018-09-06T12:06:01.527Z,15.33
2018-09-06T12:08:29.225Z,14.83
2018-09-06T12:10:56.982Z,14.73
2018-09-06T12:13:24.646Z,15.20
2018-09-06T12:15:52.376Z,15.50
2018-09-06T12:18:20.163Z,14.23
2018-09-06T12:20:47.838Z,12.57
2018-09-06T12:23:15.913Z,12.40
2018-09-06T12:25:43.635Z,11.23
2018-09-06T12:28:11.492Z,15.30
2018-09-06T12:30:39.388Z,12.97
2018-09-06T12:33:07.144Z,12.70
2018-09-06T12:35:34.821Z,11.07
2018-09-06T12:38:02.619Z,12.00
2018-09-06T12:40:30.431Z,13.23
2018-09-06T12:42:58.545Z,12.70
2018-09-06T12:45:26.274Z,12.20
2018-09-06T12:47:53.980Z,11.57
2018-09-06T12:50:21.718Z,10.57
2018-09-06T12:52:49.364Z,10.20
2018-09-06T12:55:17.124Z,10.57
2018-09-06T12:57:44.851Z,10.27
2018-09-06T13:00:12.595Z,10.40
2018-09-06T13:02:40.355Z,10.33
2018-09-06T13:05:08.130Z,11.33
2018-09-06T13:07:35.823Z,12.67
2018-09-06T13:10:03.884Z,12.77
2018-09-06T13:12:31.583Z,12.00
2018-09-06T13:14:59.257Z,11.40
2018-09-06T13:17:27.371Z,17.33
2018-09-06T13:19:55.124Z,17.67
2018-09-06T13:22:22.867Z,18.53
2018-09-06T13:24:50.603Z,15.43
2018-09-06T13:27:18.451Z,15.27
2018-09-06T13:29:46.190Z,11.27
2018-09-06T13:32:13.975Z,8.10
2018-09-06T13:34:41.690Z,12.40
2018-09-06T13:37:09.513Z,11.07
2018-09-06T13:39:37.982Z,12.10
2018-09-06T13:42:05.777Z,11.93
2018-09-06T13:44:33.399Z,11.70
2018-09-06T13:47:01.031Z,11.80
2018-09-06T13:49:28.745Z,11.67
2018-09-06T13:51:56.447Z,14.07
2018-09-06T13:54:24.150Z,13.80
2018-09-06T13:56:51.816Z,14.40
2018-09-06T13:59:19.538Z,13.93
2018-09-06T14:01:47.231Z,13.70
2018-09-06T14:04:14.951Z,15.10
2018-09-06T14:06:42.598Z,13.77
2018-09-06T14:09:10.215Z,13.47
2018-09-06T14:11:37.991Z,13.63
2018-09-06T14:14:05.801Z,12.07
2018-09-06T14:16:33.520Z,14.00
2018-09-06T14:19:01.387Z,16.93
2018-09-06T14:21:29.114Z,16.30
2018-09-06T14:23:56.842Z,13.80
2018-09-06T14:26:24.685Z,12.60
2018-09-06T14:28:52.376Z,14.73
2018-09-06T14:31:19.979Z,14.23
2018-09-06T14:33:47.640Z,11.20
2018-09-06T14:36:15.360Z,12.10
2018-09-06T14:38:42.966Z,14.13
2018-09-06T14:41:10.614Z,10.10
2018-09-06T14:43:38.263Z,8.53
2018-09-06T14:46:06.012Z,9.53
2018-09-06T14:48:33.680Z,11.00
2018-09-06T14:51:01.386Z,8.23
2018-09-06T14:53:29.036Z,6.93
2018-09-06T14:55:56.765Z,8.17
2018-09-06T14:58:24.558Z,9.23
2018-09-06T15:00:52.183Z,8.50
2018-09-06T15:03:19.818Z,9.40
2018-09-06T15:05:47.446Z,18.87
2018-09-06T15:08:15.105Z,13.40
2018-09-06T15:10:42.763Z,14.80
2018-09-06T15:13:10.367Z,14.30
2018-09-06T15:15:38.161Z,12.87
2018-09-06T15:18:05.975Z,15.27
2018-09-06T15:20:33.645Z,12.63
2018-09-06T15:23:01.243Z,13.67
2018-09-06T15:25:28.945Z,12.13
2018-09-06T15:27:56.551Z,12.93
2018-09-06T15:30:24.162Z,16.90
2018-09-06T15:32:51.838Z,14.33
2018-09-06T15:35:19.495Z,13.40
2018-09-06T15:37:47.187Z,13.87
2018-09-06T15:40:14.798Z,12.17
2018-09-06T15:42:42.514Z,11.90
2018-09-06T15:45:10.296Z,12.17
2018-09-06T15:47:37.939Z,13.63
2018-09-06T15:50:06.657Z,14.27
2018-09-06T15:52:34.327Z,12.33
2018-09-06T15:55:01.902Z,13.40
2018-09-06T15:57:29.598Z,12.83
2018-09-06T15:59:57.203Z,12.73
2018-09-06T16:02:25.010Z,14.97
2018-09-06T16:04:52.742Z,15.53
2018-09-06T16:07:20.425Z,15.90
2018-09-06T16:09:48.126Z,15.17
2018-09-06T16:12:15.837Z,15.03
2018-09-06T16:14:43.444Z,14.67
2018-09-06T16:17:11.066Z,14.43
2018-09-06T16:19:38.727Z,14.93
2018-09-06T16:22:06.550Z,15.00
2018-09-06T16:24:34.349Z,15.50
2018-09-06T16:27:01.905Z,16.27
2018-09-06T16:29:29.723Z,15.77
2018-09-06T16:31:57.339Z,14.97
2018-09-06T16:34:25.040Z,15.87
2018-09-06T16:36:52.740Z,16.10
2018-09-06T16:39:20.434Z,14.37
2018-09-06T16:41:48.147Z,16.30
2018-09-06T16:44:15.751Z,15.90
2018-09-06T16:46:43.460Z,18.17
2018-09-06T16:49:11.137Z,16.07
2018-09-06T16:51:38.839Z,15.87
2018-09-06T16:54:06.642Z,16.37
2018-09-06T16:56:34.316Z,15.07
2018-09-06T16:59:01.957Z,16.00
2018-09-06T17:01:29.666Z,18.30
2018-09-06T17:03:57.368Z,15.23
2018-09-06T17:06:25.046Z,14.63
2018-09-06T17:08:52.678Z,15.43
2018-09-06T17:11:20.290Z,15.63
2018-09-06T17:13:47.938Z,13.47
2018-09-06T17:16:15.751Z,16.03
2018-09-06T17:18:43.480Z,16.57
2018-09-06T17:21:11.133Z,19.23
2018-09-06T17:23:38.866Z,16.83
2018-09-06T17:26:06.816Z,17.10
2018-09-06T17:28:34.386Z,17.43
2018-09-06T17:31:02.134Z,15.07
2018-09-06T17:33:29.844Z,15.23
2018-09-06T17:35:57.519Z,15.40
2018-09-06T17:38:25.238Z,15.00
2018-09-06T17:40:52.839Z,14.07
2018-09-06T17:43:20.554Z,14.30
2018-09-06T17:45:48.201Z,13.87
2018-09-06T17:48:15.930Z,14.57
2018-09-06T17:50:43.795Z,14.60
2018-09-06T17:53:11.598Z,16.77
2018-09-06T17:55:40.297Z,16.40
2018-09-06T17:58:07.931Z,18.80
2018-09-06T18:00:41.176Z,19.07
2018-09-06T18:03:09.122Z,19.93
2018-09-06T18:05:36.789Z,18.93
2018-09-06T18:08:04.740Z,16.73
2018-09-06T18:10:41.563Z,19.20
2018-09-06T18:13:09.535Z,18.10
2018-09-06T18:15:37.233Z,21.43
2018-09-06T18:18:04.928Z,23.00
2018-09-06T18:20:32.711Z,23.57
2018-09-06T18:23:01.686Z,24.53
2018-09-06T18:25:29.454Z,24.13
2018-09-06T18:27:57.122Z,23.00
2018-09-06T18:30:25.077Z,24.10
2018-09-06T18:32:52.970Z,23.80
2018-09-06T18:35:20.708Z,23.93
2018-09-06T18:37:48.371Z,23.30
2018-09-06T18:40:16.031Z,20.63
2018-09-06T18:42:43.819Z,17.97
2018-09-06T18:45:11.551Z,17.33
2018-09-06T18:47:39.174Z,18.73
2018-09-06T18:50:06.894Z,17.93
2018-09-06T18:52:34.545Z,18.77
2018-09-06T18:55:02.218Z,18.10
2018-09-06T18:57:30.078Z,17.20
2018-09-06T18:59:58.470Z,19.37
2018-09-06T19:02:26.180Z,17.50
2018-09-06T19:04:53.792Z,20.40
2018-09-06T19:07:21.486Z,19.27
2018-09-06T19:09:49.214Z,18.73
2018-09-06T19:12:17.027Z,19.60
2018-09-06T19:14:44.566Z,18.90
2018-09-06T19:17:12.771Z,19.00
2018-09-06T19:19:40.422Z,20.63
2018-09-06T19:22:08.090Z,21.70
2018-09-06T19:24:35.766Z,20.03
2018-09-06T19:27:03.479Z,19.13
2018-09-06T19:29:31.142Z,16.33
2018-09-06T19:31:59.044Z,19.07
2018-09-06T19:34:26.954Z,22.93
2018-09-06T19:36:54.753Z,22.20
2018-09-06T19:39:22.391Z,16.47
2018-09-06T19:41:50.363Z,11.47
2018-09-06T19:44:18.498Z,8.73
2018-09-06T19:46:46.209Z,7.53
2018-09-06T19:49:14.790Z,7.50
2018-09-06T19:51:46.352Z,6.00
2018-09-06T19:54:14.894Z,5.57
2018-09-06T19:56:42.946Z,4.80
2018-09-06T19:59:10.603Z,4.43
2018-09-06T20:01:39.435Z,5.53
2018-09-06T20:04:07.164Z,4.53
2018-09-06T20:06:34.747Z,5.37
2018-09-06T20:09:02.479Z,4.90
2018-09-06T20:11:30.186Z,5.07
2018-09-06T20:13:57.876Z,6.23
2018-09-06T20:16:25.581Z,7.40
2018-09-06T20:18:53.375Z,5.93
2018-09-06T20:21:21.038Z,7.70
2018-09-06T20:23:48.742Z,6.50
2018-09-06T20:26:20.269Z,7.30
2018-09-06T20:28:48.979Z,8.53
2018-09-06T20:31:17.679Z,6.57
2018-09-06T20:33:45.966Z,9.10
2018-09-06T20:36:13.571Z,7.93
2018-09-06T20:38:41.292Z,8.00
2018-09-06T20:43:55.498Z,11.47
2018-09-06T20:46:23.267Z,8.83
2018-09-06T20:48:50.974Z,7.43
2018-09-06T20:51:18.545Z,7.90
2018-09-06T20:53:46.119Z,8.73
2018-09-06T20:56:13.826Z,10.80
2018-09-06T20:58:42.266Z,8.30
2018-09-06T21:01:09.909Z,8.47
2018-09-06T21:03:37.565Z,9.57
2018-09-06T21:06:05.319Z,7.03
2018-09-06T21:08:33.013Z,8.70
2018-09-06T21:11:00.684Z,7.60
2018-09-06T21:13:28.331Z,7.43
2018-09-06T21:15:56.195Z,8.70
2018-09-06T21:18:23.895Z,8.93
2018-09-06T21:20:51.662Z,10.27
2018-09-06T21:23:19.376Z,9.63
2018-09-06T21:25:46.987Z,9.30
2018-09-06T21:28:14.779Z,8.97
2018-09-06T21:30:42.392Z,10.53
2018-09-06T21:33:10.143Z,10.03
2018-09-06T21:35:37.806Z,12.70
2018-09-06T21:38:05.539Z,13.20
2018-09-06T21:40:33.164Z,13.00
2018-09-06T21:43:00.826Z,13.53
2018-09-06T21:45:28.647Z,15.70
2018-09-06T21:47:56.475Z,14.60
2018-09-06T21:50:24.171Z,12.13
2018-09-06T21:52:52.247Z,12.50
2018-09-06T21:55:19.939Z,11.47
2018-09-06T21:57:47.595Z,11.87
2018-09-06T22:00:15.316Z,11.93
2018-09-06T22:02:48.496Z,13.73
2018-09-06T22:05:16.240Z,12.03
2018-09-06T22:07:44.017Z,10.97
2018-09-06T22:10:12.206Z,12.03
2018-09-06T22:12:39.886Z,11.67
2018-09-06T22:15:07.571Z,11.83
2018-09-06T22:17:35.280Z,10.00
2018-09-06T22:20:03.042Z,10.47
2018-09-06T22:22:30.754Z,10.67
2018-09-06T22:24:58.466Z,10.83
2018-09-06T22:27:26.165Z,10.93
2018-09-06T22:29:53.819Z,12.23
2018-09-06T22:32:21.503Z,10.57
2018-09-06T22:34:49.374Z,13.17
2018-09-06T22:37:17.039Z,14.27
2018-09-06T22:39:44.756Z,12.77
2018-09-06T22:42:12.484Z,12.87
2018-09-06T22:44:40.163Z,13.00
2018-09-06T22:47:07.879Z,13.97
2018-09-06T22:49:35.758Z,15.43
2018-09-06T22:52:03.809Z,14.90
2018-09-06T22:54:31.487Z,15.87
2018-09-06T22:56:59.268Z,16.93
2018-09-06T22:59:27.226Z,17.50
2018-09-06T23:01:56.505Z,17.20
2018-09-06T23:04:24.157Z,19.77
2018-09-06T23:06:51.799Z,22.20
2018-09-06T23:09:19.438Z,19.17
2018-09-06T23:11:47.396Z,22.63
2018-09-06T23:14:15.123Z,24.53
2018-09-06T23:16:42.820Z,23.83
2018-09-06T23:19:10.718Z,25.37
2018-09-06T23:21:38.405Z,27.30
2018-09-06T23:24:06.157Z,25.63
2018-09-06T23:26:33.863Z,26.90
2018-09-06T23:29:01.579Z,26.90
2018-09-06T23:31:29.246Z,27.77
2018-09-06T23:33:56.910Z,27.60
2018-09-06T23:36:24.584Z,29.67
2018-09-06T23:38:52.218Z,30.43
2018-09-06T23:41:19.842Z,33.17
2018-09-06T23:43:47.743Z,31.63
2018-09-06T23:46:15.370Z,31.00
2018-09-06T23:48:43.020Z,31.83
2018-09-06T23:51:10.670Z,33.67
2018-09-06T23:53:38.371Z,32.07
2018-09-06T23:56:06.017Z,31.73
2018-09-06T23:58:33.723Z,30.43
